JLY7345 SBIL-SBSP
Flight info
| Callsign | JLY7345 |
|---|---|
| Flight time | 1h 53m |
| Altitude | 32000 |
| Route | DENDE DCT OBDUV DCT MIMIP UZ30 ENTIT |
| Aircraft | B738/M-SDE2E3FGHIRWXY/LB1 |
Departure
| Time | 2026-04-21 18:07 |
|---|---|
| Airport | Bahia - Jorge Amado Airport (SBIL) |
Arrival
| Time | 2026-04-21 20:01 |
|---|---|
| Airport | Congonhas–Deputado Freitas Nobre Airport (SBSP) |
| Time | Latitude | Longitude | Altitude | Speed | Heading |
|---|---|---|---|---|---|
| 2026-04-21 17:36 | -14.81456 | -39.03240 | 15 ft | 0 kts | 349° |
| 2026-04-21 17:58 | -14.81464 | -39.03238 | 15 ft | 3 kts | 355° |
| 2026-04-21 17:58 | -14.81483 | -39.03239 | 15 ft | 3 kts | 24° |
| 2026-04-21 17:59 | -14.81500 | -39.03250 | 14 ft | 3 kts | 47° |
| 2026-04-21 17:59 | -14.81512 | -39.03265 | 17 ft | 2 kts | 47° |
| 2026-04-21 17:59 | -14.81517 | -39.03270 | 15 ft | 1 kts | 47° |
| 2026-04-21 18:02 | -14.81506 | -39.03258 | 16 ft | 5 kts | 47° |
| 2026-04-21 18:03 | -14.81483 | -39.03213 | 14 ft | 9 kts | 79° |
| 2026-04-21 18:03 | -14.81479 | -39.03130 | 14 ft | 11 kts | 90° |
| 2026-04-21 18:03 | -14.81497 | -39.03095 | 14 ft | 3 kts | 141° |
| 2026-04-21 18:03 | -14.81499 | -39.03094 | 13 ft | 1 kts | 145° |
| 2026-04-21 18:04 | -14.81505 | -39.03091 | 13 ft | 1 kts | 157° |
| 2026-04-21 18:04 | -14.81527 | -39.03084 | 12 ft | 5 kts | 162° |
| 2026-04-21 18:04 | -14.81568 | -39.03061 | 12 ft | 8 kts | 131° |
| 2026-04-21 18:04 | -14.81581 | -39.02997 | 12 ft | 11 kts | 92° |
| 2026-04-21 18:05 | -14.81580 | -39.02911 | 13 ft | 13 kts | 88° |
| 2026-04-21 18:05 | -14.81577 | -39.02816 | 14 ft | 13 kts | 88° |
| 2026-04-21 18:05 | -14.81575 | -39.02724 | 15 ft | 13 kts | 89° |
| 2026-04-21 18:05 | -14.81602 | -39.02639 | 18 ft | 12 kts | 114° |
| 2026-04-21 18:06 | -14.81582 | -39.02596 | 19 ft | 5 kts | 351° |
| 2026-04-21 18:06 | -14.81572 | -39.02621 | 17 ft | 0 kts | 269° |
| 2026-04-21 18:06 | -14.81573 | -39.02662 | 18 ft | 28 kts | 269° |
| 2026-04-21 18:06 | -14.81589 | -39.03204 | 12 ft | 119 kts | 268° |
| 2026-04-21 18:07 | -14.81637 | -39.04253 | 410 ft | 157 kts | 262° |
| 2026-04-21 18:07 | -14.81705 | -39.05443 | 1181 ft | 176 kts | 260° |
| 2026-04-21 18:07 | -14.81880 | -39.06748 | 1900 ft | 198 kts | 250° |
| 2026-04-21 18:07 | -14.82616 | -39.07996 | 2287 ft | 214 kts | 214° |
| 2026-04-21 18:08 | -14.83974 | -39.08785 | 2682 ft | 230 kts | 205° |
| 2026-04-21 18:08 | -14.85422 | -39.09662 | 3127 ft | 253 kts | 210° |
| 2026-04-21 18:08 | -14.86910 | -39.10702 | 3926 ft | 261 kts | 213° |
| 2026-04-21 18:08 | -14.88363 | -39.11832 | 4890 ft | 261 kts | 216° |
| 2026-04-21 18:09 | -14.89797 | -39.13037 | 5720 ft | 270 kts | 218° |
| 2026-04-21 18:09 | -14.91226 | -39.14310 | 6621 ft | 272 kts | 219° |
| 2026-04-21 18:09 | -14.92170 | -39.15181 | 7118 ft | 279 kts | 220° |
| 2026-04-21 18:09 | -14.94113 | -39.17033 | 8158 ft | 287 kts | 221° |
| 2026-04-21 18:10 | -14.95574 | -39.18462 | 8989 ft | 291 kts | 222° |
| 2026-04-21 18:10 | -14.97054 | -39.19931 | 9790 ft | 299 kts | 222° |
| 2026-04-21 18:10 | -14.98549 | -39.21429 | 10423 ft | 309 kts | 223° |
| 2026-04-21 18:10 | -15.00152 | -39.23045 | 10627 ft | 335 kts | 223° |
| 2026-04-21 18:11 | -15.01858 | -39.24774 | 11109 ft | 347 kts | 224° |
| 2026-04-21 18:11 | -15.03592 | -39.26539 | 11829 ft | 350 kts | 224° |
| 2026-04-21 18:11 | -15.05332 | -39.28312 | 12677 ft | 350 kts | 225° |
| 2026-04-21 18:11 | -15.07069 | -39.30084 | 13459 ft | 351 kts | 226° |
| 2026-04-21 18:12 | -15.08225 | -39.31265 | 13939 ft | 353 kts | 226° |
| 2026-04-21 18:12 | -15.09986 | -39.33064 | 14527 ft | 357 kts | 226° |
| 2026-04-21 18:12 | -15.12345 | -39.35474 | 15381 ft | 361 kts | 226° |
| 2026-04-21 18:12 | -15.14136 | -39.37302 | 16072 ft | 362 kts | 226° |
| 2026-04-21 18:13 | -15.15345 | -39.38538 | 16560 ft | 362 kts | 226° |
| 2026-04-21 18:13 | -15.17158 | -39.40391 | 17065 ft | 369 kts | 225° |
| 2026-04-21 18:13 | -15.19007 | -39.42282 | 17617 ft | 374 kts | 225° |
| 2026-04-21 18:13 | -15.21458 | -39.44787 | 18523 ft | 374 kts | 225° |
| 2026-04-21 18:14 | -15.24552 | -39.47952 | 19345 ft | 380 kts | 225° |
| 2026-04-21 18:14 | -15.26450 | -39.49894 | 19769 ft | 385 kts | 225° |
| 2026-04-21 18:14 | -15.28332 | -39.51838 | 20439 ft | 383 kts | 226° |
| 2026-04-21 18:15 | -15.30023 | -39.53982 | 20921 ft | 387 kts | 233° |
| 2026-04-21 18:15 | -15.31578 | -39.56288 | 21314 ft | 393 kts | 234° |
| 2026-04-21 18:15 | -15.33125 | -39.58647 | 21758 ft | 397 kts | 234° |
| 2026-04-21 18:15 | -15.34672 | -39.61019 | 22284 ft | 398 kts | 234° |
| 2026-04-21 18:16 | -15.36235 | -39.63407 | 22757 ft | 401 kts | 234° |
| 2026-04-21 18:16 | -15.37814 | -39.65805 | 23139 ft | 406 kts | 234° |
| 2026-04-21 18:16 | -15.39418 | -39.68229 | 23583 ft | 409 kts | 234° |
| 2026-04-21 18:16 | -15.41032 | -39.70661 | 23978 ft | 411 kts | 233° |
| 2026-04-21 18:17 | -15.42640 | -39.73079 | 24330 ft | 414 kts | 233° |
| 2026-04-21 18:17 | -15.44283 | -39.75546 | 24649 ft | 417 kts | 233° |
| 2026-04-21 18:17 | -15.45939 | -39.78034 | 25002 ft | 420 kts | 233° |
| 2026-04-21 18:17 | -15.47604 | -39.80534 | 25345 ft | 423 kts | 233° |
| 2026-04-21 18:18 | -15.49283 | -39.83056 | 25673 ft | 426 kts | 233° |
| 2026-04-21 18:18 | -15.50978 | -39.85601 | 25991 ft | 429 kts | 233° |
| 2026-04-21 18:18 | -15.52676 | -39.88154 | 26340 ft | 432 kts | 233° |
| 2026-04-21 18:18 | -15.54387 | -39.90726 | 26679 ft | 434 kts | 233° |
| 2026-04-21 18:19 | -15.56105 | -39.93312 | 27008 ft | 437 kts | 232° |
| 2026-04-21 18:19 | -15.57836 | -39.95917 | 27327 ft | 439 kts | 232° |
| 2026-04-21 18:19 | -15.59574 | -39.98533 | 27643 ft | 442 kts | 232° |
| 2026-04-21 18:19 | -15.61324 | -40.01168 | 27962 ft | 444 kts | 232° |
| 2026-04-21 18:20 | -15.63085 | -40.03821 | 28273 ft | 447 kts | 232° |
| 2026-04-21 18:20 | -15.64826 | -40.06446 | 28591 ft | 448 kts | 232° |
| 2026-04-21 18:20 | -15.66593 | -40.09110 | 29020 ft | 448 kts | 232° |
| 2026-04-21 18:20 | -15.68352 | -40.11766 | 29528 ft | 445 kts | 232° |
| 2026-04-21 18:21 | -15.70100 | -40.14405 | 30057 ft | 443 kts | 232° |
| 2026-04-21 18:21 | -15.71848 | -40.17044 | 30415 ft | 442 kts | 232° |
| 2026-04-21 18:21 | -15.73590 | -40.19674 | 30791 ft | 441 kts | 232° |
| 2026-04-21 18:21 | -15.75305 | -40.22264 | 31255 ft | 438 kts | 232° |
| 2026-04-21 18:22 | -15.77020 | -40.24857 | 31766 ft | 434 kts | 232° |
| 2026-04-21 18:22 | -15.78731 | -40.27443 | 31991 ft | 435 kts | 232° |
| 2026-04-21 18:22 | -15.80446 | -40.30034 | 31994 ft | 435 kts | 232° |
| 2026-04-21 18:23 | -15.83865 | -40.35205 | 32011 ft | 433 kts | 232° |
| 2026-04-21 18:23 | -15.87274 | -40.40365 | 32023 ft | 432 kts | 232° |
| 2026-04-21 18:24 | -15.90656 | -40.45486 | 32020 ft | 432 kts | 232° |
| 2026-04-21 18:24 | -15.94056 | -40.50639 | 32002 ft | 432 kts | 232° |
| 2026-04-21 18:25 | -15.97453 | -40.55793 | 32013 ft | 432 kts | 232° |
| 2026-04-21 18:25 | -16.00849 | -40.60948 | 32013 ft | 432 kts | 232° |
| 2026-04-21 18:26 | -16.04221 | -40.66069 | 32021 ft | 432 kts | 232° |
| 2026-04-21 18:26 | -16.07614 | -40.71227 | 32021 ft | 432 kts | 232° |
| 2026-04-21 18:27 | -16.11012 | -40.76395 | 32013 ft | 433 kts | 232° |
| 2026-04-21 18:27 | -16.14410 | -40.81567 | 32023 ft | 432 kts | 232° |
| 2026-04-21 18:28 | -16.17805 | -40.86739 | 32013 ft | 433 kts | 232° |
| 2026-04-21 18:28 | -16.21195 | -40.91908 | 32024 ft | 432 kts | 232° |
| 2026-04-21 18:29 | -16.24562 | -40.97044 | 32013 ft | 432 kts | 232° |
| 2026-04-21 18:29 | -16.27950 | -41.02216 | 32024 ft | 431 kts | 233° |
| 2026-04-21 18:30 | -16.31324 | -41.07370 | 32028 ft | 431 kts | 233° |
| 2026-04-21 18:30 | -16.34700 | -41.12531 | 32030 ft | 430 kts | 233° |
| 2026-04-21 18:31 | -16.38051 | -41.17656 | 32025 ft | 430 kts | 233° |
| 2026-04-21 18:31 | -16.41438 | -41.22842 | 32016 ft | 431 kts | 233° |
| 2026-04-21 18:32 | -16.44785 | -41.27969 | 32022 ft | 430 kts | 233° |
| 2026-04-21 18:32 | -16.48153 | -41.33133 | 32026 ft | 430 kts | 233° |
| 2026-04-21 18:33 | -16.51522 | -41.38302 | 32018 ft | 430 kts | 233° |
| 2026-04-21 18:33 | -16.54876 | -41.43451 | 32018 ft | 430 kts | 233° |
| 2026-04-21 18:34 | -16.58231 | -41.48607 | 32021 ft | 430 kts | 233° |
| 2026-04-21 18:34 | -16.61577 | -41.53751 | 32011 ft | 429 kts | 233° |
| 2026-04-21 18:35 | -16.64354 | -41.58025 | 32012 ft | 429 kts | 233° |
| 2026-04-21 18:35 | -16.68274 | -41.64060 | 32006 ft | 429 kts | 233° |
| 2026-04-21 18:36 | -16.71601 | -41.69187 | 32011 ft | 429 kts | 233° |
| 2026-04-21 18:36 | -16.74956 | -41.74361 | 32005 ft | 429 kts | 233° |
| 2026-04-21 18:37 | -16.78302 | -41.79525 | 32001 ft | 429 kts | 233° |
| 2026-04-21 18:37 | -16.81633 | -41.84670 | 32007 ft | 429 kts | 233° |
| 2026-04-21 18:38 | -16.84963 | -41.89818 | 32000 ft | 429 kts | 233° |
| 2026-04-21 18:38 | -16.88395 | -41.94886 | 31994 ft | 427 kts | 226° |
| 2026-04-21 18:39 | -16.92503 | -41.99388 | 31994 ft | 426 kts | 223° |
| 2026-04-21 18:39 | -16.96652 | -42.03783 | 32000 ft | 426 kts | 223° |
| 2026-04-21 18:40 | -17.00774 | -42.08195 | 32004 ft | 426 kts | 224° |
| 2026-04-21 18:40 | -17.04214 | -42.11912 | 31994 ft | 427 kts | 224° |
| 2026-04-21 18:41 | -17.09021 | -42.17132 | 32006 ft | 427 kts | 224° |
| 2026-04-21 18:41 | -17.13141 | -42.21613 | 32005 ft | 427 kts | 224° |
| 2026-04-21 18:42 | -17.17249 | -42.26085 | 32010 ft | 427 kts | 224° |
| 2026-04-21 18:42 | -17.21355 | -42.30555 | 32010 ft | 427 kts | 224° |
| 2026-04-21 18:43 | -17.25477 | -42.35048 | 32013 ft | 427 kts | 224° |
| 2026-04-21 18:43 | -17.29587 | -42.39529 | 32022 ft | 426 kts | 224° |
| 2026-04-21 18:44 | -17.33669 | -42.43982 | 32020 ft | 427 kts | 224° |
| 2026-04-21 18:44 | -17.37766 | -42.48456 | 32022 ft | 427 kts | 224° |
| 2026-04-21 18:45 | -17.41876 | -42.52946 | 32023 ft | 427 kts | 224° |
| 2026-04-21 18:45 | -17.45998 | -42.57453 | 32026 ft | 427 kts | 225° |
| 2026-04-21 18:46 | -17.50095 | -42.61936 | 32022 ft | 427 kts | 225° |
| 2026-04-21 18:46 | -17.54208 | -42.66439 | 32022 ft | 427 kts | 225° |
| 2026-04-21 18:47 | -17.58315 | -42.70939 | 32026 ft | 427 kts | 225° |
| 2026-04-21 18:47 | -17.62422 | -42.75442 | 32033 ft | 427 kts | 225° |
| 2026-04-21 18:48 | -17.66525 | -42.79944 | 32030 ft | 427 kts | 225° |
| 2026-04-21 18:48 | -17.70633 | -42.84454 | 32028 ft | 428 kts | 225° |
| 2026-04-21 18:49 | -17.74723 | -42.88948 | 32033 ft | 428 kts | 225° |
| 2026-04-21 18:49 | -17.78143 | -42.92708 | 32038 ft | 428 kts | 225° |
| 2026-04-21 18:50 | -17.82956 | -42.98004 | 32035 ft | 429 kts | 225° |
| 2026-04-21 18:50 | -17.87054 | -43.02515 | 32049 ft | 429 kts | 225° |
| 2026-04-21 18:51 | -17.91177 | -43.07058 | 32035 ft | 429 kts | 225° |
| 2026-04-21 18:51 | -17.95299 | -43.11605 | 32043 ft | 429 kts | 225° |
| 2026-04-21 18:52 | -17.99416 | -43.16147 | 32043 ft | 429 kts | 225° |
| 2026-04-21 18:52 | -18.03535 | -43.20696 | 32047 ft | 429 kts | 225° |
| 2026-04-21 18:53 | -18.07652 | -43.25245 | 32048 ft | 429 kts | 226° |
| 2026-04-21 18:53 | -18.11729 | -43.29754 | 32044 ft | 428 kts | 226° |
| 2026-04-21 18:54 | -18.15821 | -43.34282 | 32050 ft | 427 kts | 226° |
| 2026-04-21 18:54 | -18.19904 | -43.38805 | 32046 ft | 426 kts | 226° |
| 2026-04-21 18:55 | -18.23299 | -43.42567 | 32054 ft | 425 kts | 226° |
| 2026-04-21 18:55 | -18.28060 | -43.47847 | 32051 ft | 426 kts | 226° |
| 2026-04-21 18:56 | -18.32115 | -43.52346 | 32060 ft | 426 kts | 226° |
| 2026-04-21 18:56 | -18.36193 | -43.56877 | 32057 ft | 426 kts | 226° |
| 2026-04-21 18:57 | -18.40285 | -43.61426 | 32056 ft | 427 kts | 226° |
| 2026-04-21 18:57 | -18.44348 | -43.65946 | 32053 ft | 427 kts | 226° |
| 2026-04-21 18:58 | -18.48437 | -43.70497 | 32052 ft | 428 kts | 226° |
| 2026-04-21 18:58 | -18.52532 | -43.75059 | 32047 ft | 428 kts | 226° |
| 2026-04-21 18:59 | -18.56622 | -43.79619 | 32046 ft | 428 kts | 226° |
| 2026-04-21 18:59 | -18.60712 | -43.84182 | 32031 ft | 428 kts | 226° |
| 2026-04-21 19:00 | -18.64801 | -43.88747 | 32032 ft | 428 kts | 227° |
| 2026-04-21 19:00 | -18.68195 | -43.92539 | 32026 ft | 427 kts | 227° |
| 2026-04-21 19:01 | -18.72932 | -43.97836 | 32023 ft | 426 kts | 227° |
| 2026-04-21 19:01 | -18.76320 | -44.01627 | 32016 ft | 426 kts | 227° |
| 2026-04-21 19:02 | -18.80386 | -44.06180 | 32013 ft | 426 kts | 227° |
| 2026-04-21 19:02 | -18.84450 | -44.10734 | 32011 ft | 426 kts | 227° |
| 2026-04-21 19:03 | -18.88523 | -44.15302 | 32005 ft | 427 kts | 227° |
| 2026-04-21 19:03 | -18.92594 | -44.19871 | 32012 ft | 427 kts | 227° |
| 2026-04-21 19:04 | -18.96643 | -44.24418 | 32000 ft | 428 kts | 227° |
| 2026-04-21 19:04 | -19.00720 | -44.29001 | 32012 ft | 428 kts | 227° |
| 2026-04-21 19:05 | -19.04795 | -44.33584 | 32009 ft | 428 kts | 227° |
| 2026-04-21 19:05 | -19.08872 | -44.38174 | 32011 ft | 427 kts | 227° |
| 2026-04-21 19:06 | -19.12943 | -44.42760 | 32008 ft | 427 kts | 227° |
| 2026-04-21 19:06 | -19.17006 | -44.47342 | 32008 ft | 427 kts | 227° |
| 2026-04-21 19:07 | -19.21070 | -44.51927 | 32015 ft | 426 kts | 227° |
| 2026-04-21 19:07 | -19.25098 | -44.56476 | 32008 ft | 426 kts | 227° |
| 2026-04-21 19:08 | -19.29147 | -44.61051 | 32014 ft | 425 kts | 227° |
| 2026-04-21 19:08 | -19.33185 | -44.65618 | 32006 ft | 425 kts | 227° |
| 2026-04-21 19:09 | -19.37224 | -44.70191 | 32007 ft | 425 kts | 227° |
| 2026-04-21 19:09 | -19.41266 | -44.74770 | 32014 ft | 425 kts | 227° |
| 2026-04-21 19:10 | -19.45302 | -44.79346 | 32009 ft | 424 kts | 227° |
| 2026-04-21 19:10 | -19.49309 | -44.83892 | 32008 ft | 424 kts | 227° |
| 2026-04-21 19:11 | -19.53308 | -44.88393 | 32013 ft | 425 kts | 225° |
| 2026-04-21 19:11 | -19.57832 | -44.92436 | 32016 ft | 425 kts | 219° |
| 2026-04-21 19:12 | -19.62475 | -44.96334 | 32007 ft | 425 kts | 220° |
| 2026-04-21 19:12 | -19.67088 | -45.00267 | 32009 ft | 425 kts | 220° |
| 2026-04-21 19:13 | -19.71672 | -45.04223 | 32009 ft | 425 kts | 220° |
| 2026-04-21 19:13 | -19.76259 | -45.08193 | 32021 ft | 424 kts | 220° |
| 2026-04-21 19:14 | -19.80804 | -45.12129 | 32010 ft | 423 kts | 220° |
| 2026-04-21 19:14 | -19.85376 | -45.16090 | 32014 ft | 422 kts | 220° |
| 2026-04-21 19:15 | -19.89935 | -45.20027 | 32017 ft | 422 kts | 220° |
| 2026-04-21 19:15 | -19.94461 | -45.23931 | 32020 ft | 421 kts | 220° |
| 2026-04-21 19:16 | -19.99015 | -45.27864 | 32018 ft | 421 kts | 220° |
| 2026-04-21 19:16 | -20.03562 | -45.31797 | 32025 ft | 421 kts | 220° |
| 2026-04-21 19:17 | -20.10387 | -45.37706 | 32023 ft | 421 kts | 220° |
| 2026-04-21 19:17 | -20.14912 | -45.41652 | 32014 ft | 420 kts | 221° |
| 2026-04-21 19:18 | -20.19393 | -45.45591 | 32018 ft | 419 kts | 221° |
| 2026-04-21 19:18 | -20.23892 | -45.49548 | 32021 ft | 418 kts | 221° |
| 2026-04-21 19:19 | -20.28378 | -45.53491 | 32024 ft | 418 kts | 221° |
| 2026-04-21 19:19 | -20.32837 | -45.57407 | 32024 ft | 418 kts | 221° |
| 2026-04-21 19:20 | -20.37332 | -45.61328 | 32021 ft | 417 kts | 221° |
| 2026-04-21 19:20 | -20.41832 | -45.65252 | 32020 ft | 418 kts | 221° |
| 2026-04-21 19:21 | -20.46329 | -45.69182 | 32020 ft | 418 kts | 221° |
| 2026-04-21 19:21 | -20.50823 | -45.73114 | 32026 ft | 418 kts | 221° |
| 2026-04-21 19:22 | -20.55321 | -45.77052 | 32018 ft | 418 kts | 221° |
| 2026-04-21 19:22 | -20.59779 | -45.80959 | 32018 ft | 418 kts | 221° |
| 2026-04-21 19:23 | -20.64268 | -45.84897 | 32020 ft | 417 kts | 221° |
| 2026-04-21 19:23 | -20.68752 | -45.88833 | 32027 ft | 417 kts | 221° |
| 2026-04-21 19:24 | -20.73242 | -45.92778 | 32020 ft | 417 kts | 221° |
| 2026-04-21 19:24 | -20.77716 | -45.96721 | 32024 ft | 416 kts | 221° |
| 2026-04-21 19:25 | -20.82155 | -46.00640 | 32017 ft | 415 kts | 220° |
| 2026-04-21 19:25 | -20.86604 | -46.04572 | 32023 ft | 414 kts | 220° |
| 2026-04-21 19:26 | -20.91049 | -46.08501 | 32013 ft | 414 kts | 220° |
| 2026-04-21 19:26 | -20.95492 | -46.12420 | 32032 ft | 413 kts | 218° |
| 2026-04-21 19:27 | -21.00518 | -46.15422 | 32028 ft | 417 kts | 201° |
| 2026-04-21 19:27 | -21.06007 | -46.17321 | 32030 ft | 418 kts | 199° |
| 2026-04-21 19:28 | -21.11540 | -46.19219 | 32028 ft | 418 kts | 200° |
| 2026-04-21 19:28 | -21.17063 | -46.21169 | 32031 ft | 418 kts | 200° |
| 2026-04-21 19:29 | -21.22608 | -46.23062 | 32033 ft | 418 kts | 199° |
| 2026-04-21 19:29 | -21.28157 | -46.24936 | 32031 ft | 418 kts | 199° |
| 2026-04-21 19:30 | -21.33706 | -46.26818 | 32042 ft | 417 kts | 199° |
| 2026-04-21 19:30 | -21.39241 | -46.28701 | 32046 ft | 417 kts | 199° |
| 2026-04-21 19:31 | -21.44742 | -46.30576 | 32040 ft | 417 kts | 199° |
| 2026-04-21 19:31 | -21.50275 | -46.32464 | 32037 ft | 417 kts | 199° |
| 2026-04-21 19:32 | -21.55804 | -46.34351 | 32048 ft | 416 kts | 199° |
| 2026-04-21 19:32 | -21.61323 | -46.36237 | 32048 ft | 416 kts | 199° |
| 2026-04-21 19:33 | -21.66845 | -46.38133 | 32051 ft | 416 kts | 200° |
| 2026-04-21 19:33 | -21.72335 | -46.40134 | 32059 ft | 416 kts | 201° |
| 2026-04-21 19:34 | -21.77783 | -46.42156 | 32050 ft | 417 kts | 201° |
| 2026-04-21 19:34 | -21.83287 | -46.44189 | 32051 ft | 417 kts | 201° |
| 2026-04-21 19:35 | -21.91501 | -46.47214 | 32059 ft | 417 kts | 201° |
| 2026-04-21 19:36 | -21.96997 | -46.49238 | 32044 ft | 417 kts | 201° |
| 2026-04-21 19:36 | -22.02498 | -46.51265 | 32056 ft | 417 kts | 201° |
| 2026-04-21 19:37 | -22.07934 | -46.53269 | 31666 ft | 410 kts | 201° |
| 2026-04-21 19:37 | -22.10652 | -46.54271 | 31261 ft | 406 kts | 201° |
| 2026-04-21 19:37 | -22.13312 | -46.55253 | 30875 ft | 403 kts | 201° |
| 2026-04-21 19:37 | -22.15924 | -46.56218 | 30470 ft | 400 kts | 201° |
| 2026-04-21 19:38 | -22.18555 | -46.57191 | 30015 ft | 399 kts | 201° |
| 2026-04-21 19:38 | -22.21175 | -46.58160 | 29546 ft | 397 kts | 201° |
| 2026-04-21 19:38 | -22.22938 | -46.58812 | 29236 ft | 395 kts | 201° |
| 2026-04-21 19:38 | -22.26364 | -46.60079 | 28650 ft | 391 kts | 201° |
| 2026-04-21 19:39 | -22.28925 | -46.61027 | 28220 ft | 388 kts | 201° |
| 2026-04-21 19:39 | -22.31470 | -46.61971 | 27792 ft | 386 kts | 201° |
| 2026-04-21 19:39 | -22.33996 | -46.62906 | 27373 ft | 383 kts | 201° |
| 2026-04-21 19:39 | -22.36510 | -46.63838 | 26957 ft | 381 kts | 201° |
| 2026-04-21 19:40 | -22.39013 | -46.64765 | 26539 ft | 379 kts | 201° |
| 2026-04-21 19:40 | -22.41469 | -46.65769 | 26113 ft | 375 kts | 210° |
| 2026-04-21 19:40 | -22.43542 | -46.67429 | 25697 ft | 369 kts | 225° |
| 2026-04-21 19:40 | -22.45389 | -46.69356 | 25261 ft | 369 kts | 226° |
| 2026-04-21 19:41 | -22.47229 | -46.71275 | 24868 ft | 367 kts | 225° |
| 2026-04-21 19:41 | -22.49082 | -46.73179 | 24448 ft | 367 kts | 225° |
| 2026-04-21 19:41 | -22.50942 | -46.75065 | 24035 ft | 366 kts | 224° |
| 2026-04-21 19:41 | -22.52810 | -46.76947 | 23625 ft | 366 kts | 224° |
| 2026-04-21 19:42 | -22.54672 | -46.78822 | 23153 ft | 365 kts | 224° |
| 2026-04-21 19:42 | -22.56515 | -46.80682 | 22919 ft | 358 kts | 224° |
| 2026-04-21 19:42 | -22.58318 | -46.82504 | 22709 ft | 352 kts | 224° |
| 2026-04-21 19:42 | -22.60107 | -46.84314 | 22545 ft | 353 kts | 224° |
| 2026-04-21 19:43 | -22.61916 | -46.86147 | 22381 ft | 358 kts | 224° |
| 2026-04-21 19:43 | -22.63735 | -46.87989 | 22197 ft | 359 kts | 224° |
| 2026-04-21 19:43 | -22.65562 | -46.89840 | 22017 ft | 360 kts | 224° |
| 2026-04-21 19:43 | -22.67393 | -46.91688 | 21830 ft | 359 kts | 223° |
| 2026-04-21 19:44 | -22.69375 | -46.93324 | 21638 ft | 358 kts | 214° |
| 2026-04-21 19:44 | -22.71456 | -46.94732 | 21478 ft | 356 kts | 212° |
| 2026-04-21 19:44 | -22.73577 | -46.96102 | 21299 ft | 355 kts | 212° |
| 2026-04-21 19:44 | -22.75691 | -46.97476 | 21134 ft | 353 kts | 212° |
| 2026-04-21 19:45 | -22.77786 | -46.98864 | 20955 ft | 352 kts | 213° |
| 2026-04-21 19:45 | -22.79870 | -47.00265 | 20780 ft | 351 kts | 213° |
| 2026-04-21 19:45 | -22.81936 | -47.01668 | 20607 ft | 350 kts | 213° |
| 2026-04-21 19:45 | -22.84001 | -47.03077 | 20427 ft | 350 kts | 213° |
| 2026-04-21 19:46 | -22.86056 | -47.04480 | 20265 ft | 349 kts | 213° |
| 2026-04-21 19:46 | -22.88109 | -47.05883 | 20085 ft | 349 kts | 213° |
| 2026-04-21 19:46 | -22.90193 | -47.07299 | 19609 ft | 355 kts | 212° |
| 2026-04-21 19:46 | -22.92296 | -47.08721 | 19147 ft | 357 kts | 212° |
| 2026-04-21 19:47 | -22.94391 | -47.10135 | 18644 ft | 351 kts | 212° |
| 2026-04-21 19:47 | -22.96468 | -47.11540 | 18129 ft | 352 kts | 212° |
| 2026-04-21 19:47 | -22.98550 | -47.12949 | 17613 ft | 352 kts | 212° |
| 2026-04-21 19:47 | -23.00636 | -47.14338 | 17110 ft | 351 kts | 207° |
| 2026-04-21 19:48 | -23.02896 | -47.15124 | 16614 ft | 343 kts | 187° |
| 2026-04-21 19:48 | -23.05238 | -47.15055 | 16164 ft | 334 kts | 171° |
| 2026-04-21 19:48 | -23.07489 | -47.14581 | 15720 ft | 325 kts | 168° |
| 2026-04-21 19:48 | -23.08952 | -47.14240 | 15427 ft | 322 kts | 168° |
| 2026-04-21 19:49 | -23.11862 | -47.13557 | 14855 ft | 318 kts | 168° |
| 2026-04-21 19:49 | -23.14011 | -47.13062 | 14404 ft | 316 kts | 168° |
| 2026-04-21 19:49 | -23.15437 | -47.12739 | 14108 ft | 314 kts | 168° |
| 2026-04-21 19:49 | -23.17571 | -47.12261 | 13653 ft | 313 kts | 168° |
| 2026-04-21 19:50 | -23.19696 | -47.11789 | 13207 ft | 310 kts | 168° |
| 2026-04-21 19:50 | -23.21810 | -47.11323 | 12738 ft | 308 kts | 168° |
| 2026-04-21 19:50 | -23.23908 | -47.10860 | 12314 ft | 306 kts | 168° |
| 2026-04-21 19:50 | -23.25992 | -47.10401 | 11922 ft | 304 kts | 168° |
| 2026-04-21 19:51 | -23.28713 | -47.09805 | 11454 ft | 299 kts | 168° |
| 2026-04-21 19:51 | -23.30085 | -47.09505 | 11211 ft | 297 kts | 168° |
| 2026-04-21 19:51 | -23.32104 | -47.09063 | 10856 ft | 294 kts | 169° |
| 2026-04-21 19:51 | -23.34067 | -47.08633 | 10516 ft | 286 kts | 169° |
| 2026-04-21 19:52 | -23.35995 | -47.08210 | 10181 ft | 279 kts | 169° |
| 2026-04-21 19:52 | -23.37877 | -47.07797 | 9846 ft | 272 kts | 169° |
| 2026-04-21 19:52 | -23.39730 | -47.07392 | 9506 ft | 271 kts | 169° |
| 2026-04-21 19:52 | -23.41509 | -47.06712 | 9153 ft | 273 kts | 147° |
| 2026-04-21 19:53 | -23.42804 | -47.05222 | 8894 ft | 273 kts | 122° |
| 2026-04-21 19:53 | -23.43509 | -47.03308 | 8651 ft | 271 kts | 108° |
| 2026-04-21 19:53 | -23.44014 | -47.01367 | 8404 ft | 270 kts | 106° |
| 2026-04-21 19:53 | -23.44507 | -46.99391 | 8037 ft | 273 kts | 106° |
| 2026-04-21 19:54 | -23.45007 | -46.97396 | 7736 ft | 273 kts | 106° |
| 2026-04-21 19:54 | -23.45514 | -46.95397 | 7456 ft | 273 kts | 105° |
| 2026-04-21 19:54 | -23.46021 | -46.93414 | 7202 ft | 272 kts | 105° |
| 2026-04-21 19:54 | -23.46532 | -46.91423 | 6948 ft | 271 kts | 105° |
| 2026-04-21 19:55 | -23.47042 | -46.89450 | 6717 ft | 270 kts | 105° |
| 2026-04-21 19:55 | -23.47550 | -46.87487 | 6479 ft | 266 kts | 105° |
| 2026-04-21 19:55 | -23.48045 | -46.85575 | 6213 ft | 258 kts | 105° |
| 2026-04-21 19:55 | -23.48524 | -46.83727 | 5965 ft | 250 kts | 105° |
| 2026-04-21 19:56 | -23.48987 | -46.81940 | 5737 ft | 241 kts | 106° |
| 2026-04-21 19:56 | -23.49435 | -46.80208 | 5510 ft | 233 kts | 106° |
| 2026-04-21 19:56 | -23.49863 | -46.78550 | 5303 ft | 226 kts | 106° |
| 2026-04-21 19:56 | -23.50281 | -46.76935 | 5128 ft | 216 kts | 107° |
| 2026-04-21 19:57 | -23.50678 | -46.75400 | 4945 ft | 205 kts | 107° |
| 2026-04-21 19:57 | -23.51121 | -46.73982 | 4723 ft | 190 kts | 123° |
| 2026-04-21 19:57 | -23.52058 | -46.73082 | 4579 ft | 172 kts | 147° |
| 2026-04-21 19:57 | -23.53020 | -46.72376 | 4413 ft | 158 kts | 147° |
| 2026-04-21 19:58 | -23.53885 | -46.71760 | 4261 ft | 141 kts | 148° |
| 2026-04-21 19:58 | -23.54692 | -46.71197 | 4151 ft | 141 kts | 147° |
| 2026-04-21 19:58 | -23.55524 | -46.70618 | 4040 ft | 146 kts | 146° |
| 2026-04-21 19:58 | -23.56364 | -46.70032 | 3945 ft | 143 kts | 147° |
| 2026-04-21 19:59 | -23.57181 | -46.69463 | 3774 ft | 137 kts | 147° |
| 2026-04-21 19:59 | -23.57989 | -46.68900 | 3601 ft | 138 kts | 147° |
| 2026-04-21 19:59 | -23.58790 | -46.68342 | 3432 ft | 138 kts | 148° |
| 2026-04-21 19:59 | -23.59594 | -46.67783 | 3248 ft | 136 kts | 148° |
| 2026-04-21 20:00 | -23.60392 | -46.67228 | 3067 ft | 135 kts | 148° |
| 2026-04-21 20:00 | -23.61190 | -46.66673 | 2888 ft | 137 kts | 148° |
| 2026-04-21 20:00 | -23.61998 | -46.66108 | 2708 ft | 138 kts | 148° |
| 2026-04-21 20:00 | -23.62759 | -46.65581 | 2623 ft | 117 kts | 149° |
| 2026-04-21 20:01 | -23.63142 | -46.65317 | 2639 ft | 33 kts | 148° |
| 2026-04-21 20:01 | -23.63302 | -46.65215 | 2642 ft | 14 kts | 159° |
| 2026-04-21 20:01 | -23.63385 | -46.65216 | 2641 ft | 8 kts | 207° |
| 2026-04-21 20:01 | -23.63406 | -46.65266 | 2642 ft | 8 kts | 290° |
| 2026-04-21 20:02 | -23.63368 | -46.65306 | 2646 ft | 8 kts | 322° |
| 2026-04-21 20:02 | -23.63325 | -46.65339 | 2642 ft | 8 kts | 328° |
| 2026-04-21 20:02 | -23.63268 | -46.65375 | 2641 ft | 12 kts | 330° |
| 2026-04-21 20:02 | -23.63181 | -46.65433 | 2638 ft | 18 kts | 326° |
| 2026-04-21 20:03 | -23.63068 | -46.65509 | 2632 ft | 20 kts | 342° |
| 2026-04-21 20:03 | -23.62934 | -46.65569 | 2626 ft | 22 kts | 327° |
| 2026-04-21 20:03 | -23.62804 | -46.65657 | 2624 ft | 22 kts | 329° |
| 2026-04-21 20:03 | -23.62671 | -46.65751 | 2618 ft | 24 kts | 326° |
| 2026-04-21 20:04 | -23.62556 | -46.65831 | 2614 ft | 14 kts | 327° |
| 2026-04-21 20:04 | -23.62543 | -46.65867 | 2613 ft | 5 kts | 253° |
| 2026-04-21 20:04 | -23.62561 | -46.65900 | 2613 ft | 5 kts | 238° |
| 2026-04-21 20:04 | -23.62571 | -46.65919 | 2613 ft | 3 kts | 238° |
| 2026-04-21 20:05 | -23.62574 | -46.65924 | 2613 ft | 0 kts | 237° |